sensor_id;sensor_type;location;lat;lon;timestamp;temperature;humidity
11583;DHT22;34299;50.820;4.548;2023-04-30T00:02:11;6.60;99.90
11583;DHT22;34299;50.820;4.548;2023-04-30T00:04:39;6.60;99.90
11583;DHT22;34299;50.820;4.548;2023-04-30T00:07:06;6.60;99.90
11583;DHT22;34299;50.820;4.548;2023-04-30T00:09:33;6.50;99.90
11583;DHT22;34299;50.820;4.548;2023-04-30T00:12:00;6.50;99.90
11583;DHT22;34299;50.820;4.548;2023-04-30T00:14:27;6.40;99.90
11583;DHT22;34299;50.820;4.548;2023-04-30T00:16:54;6.40;99.90
11583;DHT22;34299;50.820;4.548;2023-04-30T00:19:21;6.30;99.90
11583;DHT22;34299;50.820;4.548;2023-04-30T00:21:49;6.20;99.90
11583;DHT22;34299;50.820;4.548;2023-04-30T00:24:16;6.10;99.90
11583;DHT22;34299;50.820;4.548;2023-04-30T00:26:43;6.10;99.90
11583;DHT22;34299;50.820;4.548;2023-04-30T00:29:10;5.90;99.90
11583;DHT22;34299;50.820;4.548;2023-04-30T00:31:37;5.90;99.90
11583;DHT22;34299;50.820;4.548;2023-04-30T00:34:04;5.90;99.90
11583;DHT22;34299;50.820;4.548;2023-04-30T00:36:31;5.80;99.90
11583;DHT22;34299;50.820;4.548;2023-04-30T00:38:59;5.70;99.90
11583;DHT22;34299;50.820;4.548;2023-04-30T00:41:26;5.60;99.90
11583;DHT22;34299;50.820;4.548;2023-04-30T00:43:54;5.50;99.90
11583;DHT22;34299;50.820;4.548;2023-04-30T00:46:21;5.60;99.90
11583;DHT22;34299;50.820;4.548;2023-04-30T00:48:48;5.60;99.90
11583;DHT22;34299;50.820;4.548;2023-04-30T00:51:15;5.60;99.90
11583;DHT22;34299;50.820;4.548;2023-04-30T00:53:43;5.60;99.90
11583;DHT22;34299;50.820;4.548;2023-04-30T00:56:12;5.50;99.90
11583;DHT22;34299;50.820;4.548;2023-04-30T00:58:40;5.50;99.90
11583;DHT22;34299;50.820;4.548;2023-04-30T01:01:07;5.40;99.90
11583;DHT22;34299;50.820;4.548;2023-04-30T01:03:35;5.30;99.90
11583;DHT22;34299;50.820;4.548;2023-04-30T01:06:02;5.30;99.90
11583;DHT22;34299;50.820;4.548;2023-04-30T01:08:29;5.20;99.90
11583;DHT22;34299;50.820;4.548;2023-04-30T01:11:11;5.20;99.90
11583;DHT22;34299;50.820;4.548;2023-04-30T01:13:51;5.20;99.90
11583;DHT22;34299;50.820;4.548;2023-04-30T01:16:22;5.30;99.90
11583;DHT22;34299;50.820;4.548;2023-04-30T01:18:53;5.50;99.90
11583;DHT22;34299;50.820;4.548;2023-04-30T01:21:23;5.70;99.90
11583;DHT22;34299;50.820;4.548;2023-04-30T01:24:17;5.80;99.90
11583;DHT22;34299;50.820;4.548;2023-04-30T01:27:03;5.70;99.90
11583;DHT22;34299;50.820;4.548;2023-04-30T01:29:34;5.50;99.90
11583;DHT22;34299;50.820;4.548;2023-04-30T01:32:02;5.40;99.90
11583;DHT22;34299;50.820;4.548;2023-04-30T01:34:29;5.30;99.90
11583;DHT22;34299;50.820;4.548;2023-04-30T01:37:09;5.20;99.90
11583;DHT22;34299;50.820;4.548;2023-04-30T01:39:50;5.00;99.90
11583;DHT22;34299;50.820;4.548;2023-04-30T01:42:28;5.00;99.90
11583;DHT22;34299;50.820;4.548;2023-04-30T01:45:12;4.90;99.90
11583;DHT22;34299;50.820;4.548;2023-04-30T01:47:49;4.90;99.90
11583;DHT22;34299;50.820;4.548;2023-04-30T01:50:24;4.80;99.90
11583;DHT22;34299;50.820;4.548;2023-04-30T01:52:57;4.80;99.90
11583;DHT22;34299;50.820;4.548;2023-04-30T01:55:29;4.80;99.90
11583;DHT22;34299;50.820;4.548;2023-04-30T01:57:59;4.80;99.90
11583;DHT22;34299;50.820;4.548;2023-04-30T02:00:29;4.70;99.90
11583;DHT22;34299;50.820;4.548;2023-04-30T02:02:56;4.60;99.90
11583;DHT22;34299;50.820;4.548;2023-04-30T02:05:23;4.60;99.90
11583;DHT22;34299;50.820;4.548;2023-04-30T02:07:50;4.80;99.90
11583;DHT22;34299;50.820;4.548;2023-04-30T02:10:19;4.70;99.90
11583;DHT22;34299;50.820;4.548;2023-04-30T02:12:47;4.70;99.90
11583;DHT22;34299;50.820;4.548;2023-04-30T02:15:14;4.60;99.90
11583;DHT22;34299;50.820;4.548;2023-04-30T02:17:42;4.50;99.90
11583;DHT22;34299;50.820;4.548;2023-04-30T02:20:09;4.50;99.90
11583;DHT22;34299;50.820;4.548;2023-04-30T02:22:37;4.40;99.90
11583;DHT22;34299;50.820;4.548;2023-04-30T02:25:04;4.30;99.90
11583;DHT22;34299;50.820;4.548;2023-04-30T02:27:32;4.30;99.90
11583;DHT22;34299;50.820;4.548;2023-04-30T02:29:59;4.20;99.90
11583;DHT22;34299;50.820;4.548;2023-04-30T02:32:27;4.20;99.90
11583;DHT22;34299;50.820;4.548;2023-04-30T02:34:55;4.30;99.90
11583;DHT22;34299;50.820;4.548;2023-04-30T02:37:22;4.20;99.90
11583;DHT22;34299;50.820;4.548;2023-04-30T02:39:50;4.10;99.90
11583;DHT22;34299;50.820;4.548;2023-04-30T02:42:17;4.00;99.90
11583;DHT22;34299;50.820;4.548;2023-04-30T02:44:44;4.00;99.90
11583;DHT22;34299;50.820;4.548;2023-04-30T02:47:11;4.20;99.90
11583;DHT22;34299;50.820;4.548;2023-04-30T02:49:38;4.10;99.90
11583;DHT22;34299;50.820;4.548;2023-04-30T02:52:07;4.10;99.90
11583;DHT22;34299;50.820;4.548;2023-04-30T02:54:34;4.10;99.90
11583;DHT22;34299;50.820;4.548;2023-04-30T02:57:01;4.10;99.90
11583;DHT22;34299;50.820;4.548;2023-04-30T02:59:28;4.10;99.90
11583;DHT22;34299;50.820;4.548;2023-04-30T03:01:55;4.10;99.90
11583;DHT22;34299;50.820;4.548;2023-04-30T03:04:23;4.00;99.90
11583;DHT22;34299;50.820;4.548;2023-04-30T03:06:51;4.00;99.90
11583;DHT22;34299;50.820;4.548;2023-04-30T03:09:20;3.90;99.90
11583;DHT22;34299;50.820;4.548;2023-04-30T03:11:47;3.90;99.90
11583;DHT22;34299;50.820;4.548;2023-04-30T03:14:14;3.90;99.90
11583;DHT22;34299;50.820;4.548;2023-04-30T03:16:41;3.90;99.90
11583;DHT22;34299;50.820;4.548;2023-04-30T03:19:08;3.90;99.90
11583;DHT22;34299;50.820;4.548;2023-04-30T03:21:35;3.80;99.90
11583;DHT22;34299;50.820;4.548;2023-04-30T03:24:02;3.80;99.90
11583;DHT22;34299;50.820;4.548;2023-04-30T03:26:31;3.80;99.90
11583;DHT22;34299;50.820;4.548;2023-04-30T03:28:58;3.90;99.90
11583;DHT22;34299;50.820;4.548;2023-04-30T03:31:25;3.80;99.90
11583;DHT22;34299;50.820;4.548;2023-04-30T03:33:52;4.00;99.90
11583;DHT22;34299;50.820;4.548;2023-04-30T03:36:19;4.10;99.90
11583;DHT22;34299;50.820;4.548;2023-04-30T03:38:46;4.00;99.90
11583;DHT22;34299;50.820;4.548;2023-04-30T03:41:13;3.90;99.90
11583;DHT22;34299;50.820;4.548;2023-04-30T03:43:42;3.80;99.90
11583;DHT22;34299;50.820;4.548;2023-04-30T03:46:09;3.70;99.90
11583;DHT22;34299;50.820;4.548;2023-04-30T03:48:36;3.60;99.90
11583;DHT22;34299;50.820;4.548;2023-04-30T03:51:03;3.60;99.90
11583;DHT22;34299;50.820;4.548;2023-04-30T03:53:30;3.60;99.90
11583;DHT22;34299;50.820;4.548;2023-04-30T03:55:57;3.60;99.90
11583;DHT22;34299;50.820;4.548;2023-04-30T03:58:24;3.70;99.90
11583;DHT22;34299;50.820;4.548;2023-04-30T04:00:52;3.70;99.90
11583;DHT22;34299;50.820;4.548;2023-04-30T04:03:19;3.70;99.90
11583;DHT22;34299;50.820;4.548;2023-04-30T04:05:46;3.60;99.90
11583;DHT22;34299;50.820;4.548;2023-04-30T04:08:13;3.50;99.90
11583;DHT22;34299;50.820;4.548;2023-04-30T04:10:40;3.50;99.90
11583;DHT22;34299;50.820;4.548;2023-04-30T04:13:07;3.40;99.90
11583;DHT22;34299;50.820;4.548;2023-04-30T04:15:34;3.40;99.90
11583;DHT22;34299;50.820;4.548;2023-04-30T04:18:02;3.40;99.90
11583;DHT22;34299;50.820;4.548;2023-04-30T04:20:31;3.40;99.90
11583;DHT22;34299;50.820;4.548;2023-04-30T04:22:58;3.40;99.90
11583;DHT22;34299;50.820;4.548;2023-04-30T04:25:25;3.40;99.90
11583;DHT22;34299;50.820;4.548;2023-04-30T04:27:53;3.40;99.90
11583;DHT22;34299;50.820;4.548;2023-04-30T04:30:20;3.40;99.90
11583;DHT22;34299;50.820;4.548;2023-04-30T04:32:47;3.40;99.90
11583;DHT22;34299;50.820;4.548;2023-04-30T04:35:16;3.40;99.90
11583;DHT22;34299;50.820;4.548;2023-04-30T04:37:44;3.40;99.90
11583;DHT22;34299;50.820;4.548;2023-04-30T04:40:11;3.50;99.90
11583;DHT22;34299;50.820;4.548;2023-04-30T04:42:38;3.70;99.90
11583;DHT22;34299;50.820;4.548;2023-04-30T04:45:06;3.70;99.90
11583;DHT22;34299;50.820;4.548;2023-04-30T04:47:34;3.90;99.90
11583;DHT22;34299;50.820;4.548;2023-04-30T04:50:01;3.90;99.90
11583;DHT22;34299;50.820;4.548;2023-04-30T04:52:29;3.90;99.90
11583;DHT22;34299;50.820;4.548;2023-04-30T04:54:56;3.80;99.90
11583;DHT22;34299;50.820;4.548;2023-04-30T04:57:23;3.80;99.90
11583;DHT22;34299;50.820;4.548;2023-04-30T04:59:50;3.80;99.90
11583;DHT22;34299;50.820;4.548;2023-04-30T05:02:17;3.80;99.90
11583;DHT22;34299;50.820;4.548;2023-04-30T05:04:44;3.80;99.90
11583;DHT22;34299;50.820;4.548;2023-04-30T05:07:15;4.00;99.90
11583;DHT22;34299;50.820;4.548;2023-04-30T05:09:44;4.20;99.90
11583;DHT22;34299;50.820;4.548;2023-04-30T05:12:12;4.10;99.90
11583;DHT22;34299;50.820;4.548;2023-04-30T05:14:39;4.10;99.90
11583;DHT22;34299;50.820;4.548;2023-04-30T05:17:06;4.10;99.90
11583;DHT22;34299;50.820;4.548;2023-04-30T05:19:33;4.10;99.90
11583;DHT22;34299;50.820;4.548;2023-04-30T05:22:00;4.20;99.90
11583;DHT22;34299;50.820;4.548;2023-04-30T05:24:27;4.20;99.90
11583;DHT22;34299;50.820;4.548;2023-04-30T05:26:56;4.30;99.90
11583;DHT22;34299;50.820;4.548;2023-04-30T05:29:23;4.30;99.90
11583;DHT22;34299;50.820;4.548;2023-04-30T05:31:50;4.30;99.90
11583;DHT22;34299;50.820;4.548;2023-04-30T05:34:17;4.40;99.90
11583;DHT22;34299;50.820;4.548;2023-04-30T05:36:44;4.40;99.90
11583;DHT22;34299;50.820;4.548;2023-04-30T05:39:11;4.50;99.90
11583;DHT22;34299;50.820;4.548;2023-04-30T05:41:38;4.60;99.90
11583;DHT22;34299;50.820;4.548;2023-04-30T05:44:06;4.70;99.90
11583;DHT22;34299;50.820;4.548;2023-04-30T05:46:33;4.80;99.90
11583;DHT22;34299;50.820;4.548;2023-04-30T05:49:01;4.90;99.90
11583;DHT22;34299;50.820;4.548;2023-04-30T05:51:28;5.00;99.90
11583;DHT22;34299;50.820;4.548;2023-04-30T05:53:55;5.20;99.90
